• Join FlightAware (Why Join?)
  • Login
  • US Flag 
02:57PM EDT


 

Airport Tracker/Info


-or-


 

Live Flight TrackerFlight Track Log ✈ TAM3785 ✈ 28-Jun-2013 ✈ SBFZ / FOR - SBBR / BSB

Flight Track Log - Related Links

Times and Time Zones

All times are in EDT time to prevent confusion due to time zone crossing. See the TAM3785 flight status page for this flight to view local times or setup timezone preferences in your user account.

Time Position Orientation Groundspeed Altitude Reporting Facility
EDT Latitude Longitude Course Direction KTS MPH feet Rate Location/Type
07:14PM -3.7780 -38.5390 210° Southwest 12 14  Level FlightAware
07:15PM -3.7770 -38.5390 360° North 10 12 60 Level FlightAware
07:17PM -3.9334 -38.6559 217° Southwest  Level Estimated
07:18PM -4.0212 -38.7214 217° Southwest  Level Estimated
07:18PM -3.7770 -38.5400 217° Southwest 19 22  Level FlightAware
07:19PM -3.7770 -38.5410 270° West 23 26 180 Level FlightAware
07:19PM -3.7760 -38.5420 315° West 28 32 180 Level FlightAware
07:19PM -3.7760 -38.5440 270° West 34 39 240 Level FlightAware
07:20PM -3.7750 -38.5440 360° North 30 35 300 Level FlightAware
07:20PM -3.7740 -38.5440 360° North 32 37 360 Level FlightAware
07:20PM -3.7730 -38.5440 360° North 19 22 480 Level FlightAware
07:21PM -3.7730 -38.5430 90° East 14 16 540 Level FlightAware
07:21PM -3.7760 -38.5350 111° Southeast 130 150 720 Level FlightAware
07:22PM -3.7810 -38.5150 104° East 159 183 700 1,800 Climbing FlightAware
07:22PM -3.7870 -38.4960 108° East 156 180 1,700 1,980 Climbing FlightAware
07:22PM -3.7900 -38.4820 102° East 153 176 2,300 1,620 Climbing FlightAware
07:23PM -3.7820 -38.4710 54° Northeast 164 189 2,800 1,200 Climbing FlightAware
07:23PM -3.7640 -38.4810 331° Northwest 188 216 3,300 900 Climbing FlightAware
07:23PM -3.7620 -38.4890 284° West 199 229 3,400 780 Climbing FlightAware
07:24PM -3.7680 -38.5240 260° West 239 275 3,900 780 Climbing FlightAware
07:24PM -3.7720 -38.5370 253° West 258 297 4,000 1,320 Climbing FlightAware
07:25PM -3.7800 -38.5670 255° West 282 325 4,700 2,340 Climbing FlightAware
07:25PM -3.7920 -38.6070 253° West 281 323 6,200 2,700 Climbing FlightAware
07:26PM -3.8030 -38.6420 253° West 286 329 7,400 2,520 Climbing FlightAware
07:26PM -3.8140 -38.6780 253° West 289 333 8,600 2,340 Climbing FlightAware
07:26PM -3.8250 -38.7150 253° West 297 342 9,600 1,800 Climbing FlightAware
07:27PM -3.8420 -38.7710 253° West 323 372 10,700 1,260 Climbing FlightAware
07:28PM -3.8630 -38.8430 254° West 364 419 11,500 1,440 Climbing FlightAware
07:29PM -3.8830 -38.9070 253° West 370 426 12,800 1,920 Climbing FlightAware
07:29PM -3.9050 -38.9800 253° West 377 434 14,200 1,800 Climbing FlightAware
07:30PM -3.9310 -39.0360 245° Southwest 383 441 15,200 1,500 Climbing FlightAware
07:30PM -3.9540 -39.0540 218° Southwest 388 447 15,500 1,500 Climbing FlightAware
07:31PM -4.0200 -39.0950 212° Southwest 392 451 16,700 1,740 Climbing FlightAware
07:32PM -4.0860 -39.1350 211° Southwest 394 453 18,000 1,500 Climbing FlightAware
07:32PM -4.1540 -39.1780 212° Southwest 407 468 18,900 1,200 Climbing FlightAware
07:33PM -4.2200 -39.2190 212° Southwest 419 482 19,700 1,200 Climbing FlightAware
07:34PM -4.2840 -39.2590 212° Southwest 424 488 20,500 1,260 Climbing FlightAware
07:35PM -4.3770 -39.3170 212° Southwest 428 493 21,700 1,440 Climbing FlightAware
07:35PM -4.4570 -39.3670 212° Southwest 423 487 23,000 1,200 Climbing FlightAware
07:36PM -4.5320 -39.4140 212° Southwest 431 496 23,600 840 Climbing FlightAware
07:37PM -4.6000 -39.4560 212° Southwest 436 502 24,200 900 Climbing FlightAware
07:37PM -4.6690 -39.5000 212° Southwest 440 506 24,800 780 Climbing FlightAware
07:38PM -4.7410 -39.5440 211° Southwest 447 514 25,300 1,140 Climbing FlightAware
07:39PM -4.8240 -39.5960 212° Southwest 438 504 26,500 1,200 Climbing FlightAware
07:39PM -4.8830 -39.6320 211° Southwest 441 507 27,000 1,020 Climbing FlightAware
07:40PM -4.9840 -39.6960 212° Southwest 438 504 28,100 1,140 Climbing FlightAware
07:41PM -5.0590 -39.7430 212° Southwest 436 502 29,000 1,080 Climbing FlightAware
07:42PM -5.1310 -39.7880 212° Southwest 438 504 29,700 660 Climbing FlightAware
07:43PM -5.2080 -39.8360 212° Southwest 440 506 30,000 180 Climbing FlightAware
07:43PM -5.2760 -39.8780 212° Southwest 447 514 30,000  Level FlightAware
07:44PM -5.3550 -39.9280 212° Southwest 462 532 30,000  Level FlightAware
07:45PM -5.4220 -39.9700 212° Southwest 466 536 30,000  Level FlightAware
07:45PM -5.5110 -40.0250 212° Southwest 469 540 30,000  Level FlightAware
07:46PM -5.5870 -40.0720 212° Southwest 465 535 30,000  Level FlightAware
07:47PM -5.6610 -40.1190 212° Southwest 465 535 30,000  Level FlightAware
07:47PM -5.7390 -40.1680 212° Southwest 466 536 30,000  Level FlightAware
07:48PM -5.8140 -40.2150 212° Southwest 469 540 30,000  Level FlightAware
07:49PM -5.8950 -40.2660 212° Southwest 471 542 30,000 60 Level FlightAware
07:50PM -5.9730 -40.3150 212° Southwest 470 541 30,100  Climbing FlightAware
07:50PM -6.0410 -40.3580 212° Southwest 468 539 30,000 -120 Descending FlightAware
07:51PM -6.1270 -40.4120 212° Southwest 467 537 30,000  Level FlightAware
07:52PM -6.2020 -40.4590 212° Southwest 466 536 30,000  Level FlightAware
07:52PM -6.2850 -40.5110 212° Southwest 466 536 30,000  Level FlightAware
07:53PM -6.3560 -40.5550 212° Southwest 467 537 30,000  Level FlightAware
07:54PM -6.4400 -40.6080 212° Southwest 468 539 30,000  Level FlightAware
07:54PM -6.5110 -40.6530 212° Southwest 470 541 30,000  Level FlightAware
07:55PM -6.5860 -40.7000 212° Southwest 470 541 30,000  Level FlightAware
07:56PM -6.6690 -40.7520 212° Southwest 470 541 30,000  Level FlightAware
07:57PM -6.7490 -40.8030 212° Southwest 470 541 30,000  Level FlightAware
07:57PM -6.8160 -40.8440 211° Southwest 471 542 30,000  Level FlightAware
07:58PM -6.9020 -40.8990 212° Southwest 472 543 30,000  Level FlightAware
07:59PM -6.9760 -40.9450 212° Southwest 471 542 30,000  Level FlightAware
07:59PM -7.0610 -40.9990 212° Southwest 471 542 30,000  Level FlightAware
08:00PM -7.1330 -41.0440 212° Southwest 470 541 30,000  Level FlightAware
08:01PM -7.1990 -41.0860 212° Southwest 469 540 30,000  Level FlightAware
08:01PM -7.2900 -41.1430 212° Southwest 468 539 30,000  Level FlightAware
08:02PM -7.3710 -41.1950 212° Southwest 466 536 30,000  Level FlightAware
08:03PM -7.4400 -41.2380 212° Southwest 467 537 30,000  Level FlightAware
08:03PM -7.5070 -41.2810 212° Southwest 467 537 30,000  Level FlightAware
08:04PM -7.6000 -41.3400 212° Southwest 466 536 30,000  Level FlightAware
08:05PM -7.6870 -41.3950 212° Southwest 466 536 30,000  Level FlightAware
08:06PM -7.7780 -41.4560 214° Southwest 465 535 30,000  Level FlightAware
08:07PM -7.8500 -41.5090 216° Southwest 466 536 30,000  Level FlightAware
08:07PM -7.9240 -41.5630 216° Southwest 468 539 30,000  Level FlightAware
08:08PM -7.9990 -41.6180 216° Southwest 468 539 30,000  Level FlightAware
08:09PM -8.0720 -41.6720 216° Southwest 468 539 30,000  Level FlightAware
08:09PM -8.1490 -41.7280 216° Southwest 468 539 30,000  Level FlightAware
08:10PM -8.2420 -41.7960 216° Southwest 466 536 30,000  Level FlightAware
08:11PM -8.3110 -41.8470 216° Southwest 465 535 30,000  Level FlightAware
08:11PM -8.3590 -41.8820 216° Southwest 465 535 30,000  Level FlightAware
08:12PM -8.4360 -41.9390 216° Southwest 463 533 30,000  Level FlightAware
08:13PM -8.5150 -41.9970 216° Southwest 463 533 30,000  Level FlightAware
08:14PM -8.5770 -42.0420 216° Southwest 463 533 30,000  Level FlightAware
08:14PM -8.6550 -42.1000 216° Southwest 464 534 30,000  Level FlightAware
08:15PM -8.7280 -42.1530 216° Southwest 464 534 30,000  Level FlightAware
08:16PM -8.8050 -42.2100 216° Southwest 464 534 30,000  Level FlightAware
08:16PM -8.8730 -42.2600 216° Southwest 463 533 30,000  Level FlightAware
08:17PM -8.9460 -42.3140 216° Southwest 464 534 30,000  Level FlightAware
08:18PM -9.0220 -42.3700 216° Southwest 465 535 30,000  Level FlightAware
08:19PM -9.0990 -42.4260 216° Southwest 465 535 30,000  Level FlightAware
08:19PM -9.1680 -42.4780 217° Southwest 465 535 30,000  Level FlightAware
08:20PM -9.2340 -42.5270 216° Southwest 465 535 30,000  Level FlightAware
08:21PM -9.3190 -42.5900 216° Southwest 466 536 30,000  Level FlightAware
08:21PM -9.3880 -42.6410 216° Southwest 467 537 30,000  Level FlightAware
08:22PM -9.4590 -42.6940 216° Southwest 467 537 30,000  Level FlightAware
08:23PM -9.5360 -42.7510 216° Southwest 465 535 30,000  Level FlightAware
08:23PM -9.6100 -42.8060 216° Southwest 465 535 30,000  Level FlightAware
08:24PM -9.7040 -42.8750 216° Southwest 464 534 30,000  Level FlightAware
08:25PM -9.7800 -42.9320 216° Southwest 464 534 30,000  Level FlightAware
08:26PM -9.8690 -42.9990 217° Southwest 465 535 30,000  Level FlightAware
08:27PM -9.9470 -43.0560 216° Southwest 467 537 30,000  Level FlightAware
08:27PM -10.0120 -43.1050 217° Southwest 468 539 30,000  Level FlightAware
08:28PM -10.0900 -43.1640 217° Southwest 468 539 30,000  Level FlightAware
08:29PM -10.1670 -43.2210 216° Southwest 467 537 30,000  Level FlightAware
08:29PM -10.2380 -43.2740 216° Southwest 467 537 30,000  Level FlightAware
08:30PM -10.3320 -43.3440 216° Southwest 466 536 30,000  Level FlightAware
08:31PM -10.4110 -43.4030 216° Southwest 466 536 30,000  Level FlightAware
08:32PM -10.4830 -43.4570 216° Southwest 465 535 30,000  Level FlightAware
08:32PM -10.5550 -43.5110 216° Southwest 464 534 30,000  Level FlightAware
08:33PM -10.6230 -43.5620 216° Southwest 465 535 30,000  Level FlightAware
08:34PM -10.6740 -43.5990 215° Southwest 465 535 30,000  Level FlightAware
08:35PM -10.7460 -43.6520 216° Southwest 465 535 30,000  Level FlightAware
08:35PM -10.7980 -43.6910 216° Southwest 465 535 30,000  Level FlightAware
08:36PM -10.8690 -43.7430 216° Southwest 465 535 30,000 -180 Level FlightAware
08:39PM -11.0936 -43.9259 219° Southwest  Level Estimated
08:40PM -11.1822 -43.9982 219° Southwest  Level Estimated
08:41PM -11.2708 -44.0705 219° Southwest  Level Estimated
08:42PM -11.3594 -44.1429 219° Southwest  Level Estimated
08:43PM -11.4480 -44.2153 219° Southwest  Level Estimated
08:44PM -11.5365 -44.2878 219° Southwest  Level Estimated
08:45PM -11.6250 -44.3603 219° Southwest  Level Estimated
08:46PM -11.7135 -44.4328 219° Southwest  Level Estimated
08:47PM -11.8020 -44.5054 219° Southwest  Level Estimated
08:48PM -11.8905 -44.5781 219° Southwest  Level Estimated
08:49PM -11.9790 -44.6508 219° Southwest  Level Estimated
08:50PM -12.0674 -44.7235 219° Southwest  Level Estimated
08:51PM -12.1558 -44.7963 219° Southwest  Level Estimated
08:52PM -12.2442 -44.8691 219° Southwest  Level Estimated
08:53PM -12.3326 -44.9420 219° Southwest  Level Estimated
08:54PM -12.4210 -45.0150 219° Southwest  Level Estimated
08:55PM -12.5093 -45.0880 219° Southwest  Level Estimated
08:56PM -12.5976 -45.1610 219° Southwest  Level Estimated
08:57PM -12.6859 -45.2341 219° Southwest  Level Estimated
08:58PM -12.7742 -45.3072 219° Southwest  Level Estimated
08:59PM -12.8625 -45.3804 219° Southwest  Level Estimated
09:00PM -12.9507 -45.4537 219° Southwest  Level Estimated
09:01PM -13.0389 -45.5270 219° Southwest  Level Estimated
09:02PM -13.1271 -45.6003 219° Southwest  Level Estimated
09:03PM -13.2153 -45.6737 219° Southwest  Level Estimated
09:04PM -13.3035 -45.7472 219° Southwest  Level Estimated
09:05PM -13.3916 -45.8206 219° Southwest  Level Estimated
09:06PM -13.4797 -45.8942 219° Southwest  Level Estimated
09:07PM -13.5678 -45.9678 219° Southwest  Level Estimated
09:08PM -13.6559 -46.0415 219° Southwest  Level Estimated
09:09PM -13.7439 -46.1152 219° Southwest  Level Estimated
09:10PM -13.8320 -46.1890 219° Southwest  Level Estimated
09:11PM -13.9200 -46.2628 219° Southwest  Level Estimated
09:12PM -14.0080 -46.3367 219° Southwest  Level Estimated
09:13PM -14.0959 -46.4106 219° Southwest  Level Estimated
09:14PM -14.1839 -46.4846 219° Southwest  Level Estimated
09:15PM -14.2718 -46.5587 219° Southwest  Level Estimated
09:16PM -14.3597 -46.6328 219° Southwest  Level Estimated
09:17PM -14.4476 -46.7070 219° Southwest  Level Estimated
09:18PM -14.5354 -46.7812 219° Southwest  Level Estimated
09:19PM -14.6232 -46.8555 219° Southwest  Level Estimated
09:19PM -15.2050 -47.2220 219° Southwest 393 452 24,000  Level FlightAware
09:20PM -14.7110 -46.9299 219° Southwest  Level Estimated
09:20PM -15.2690 -47.3010 230° Southwest 392 451 22,800  Level FlightAware
09:21PM -15.3360 -47.3830 230° Southwest 387 445 20,300 -2,580 Descending FlightAware
09:22PM -15.3860 -47.4460 231° Southwest 375 432 18,600 -2,100 Descending FlightAware
09:23PM -15.4310 -47.5020 230° Southwest 369 425 17,400 -1,920 Descending FlightAware
09:23PM -15.4810 -47.5640 230° Southwest 366 421 15,900 -1,860 Descending FlightAware
09:24PM -15.5220 -47.6170 231° Southwest 362 417 14,800 -1,740 Descending FlightAware
09:25PM -15.5660 -47.6720 230° Southwest 357 411 13,600 -1,320 Descending FlightAware
09:25PM -15.6110 -47.7280 230° Southwest 324 373 13,000 -720 Descending FlightAware
09:26PM -15.6480 -47.7740 230° Southwest 296 341 12,600 -600 Descending FlightAware
09:27PM -15.6780 -47.8170 234° Southwest 271 312 12,200 -720 Descending FlightAware
09:27PM -15.6910 -47.8650 254° West 253 291 11,700 -1,020 Descending FlightAware
09:28PM -15.7040 -47.9180 256° West 248 285 10,800 -1,140 Descending FlightAware
09:29PM -15.7150 -47.9620 255° West 236 272 10,100 -1,200 Descending FlightAware
09:29PM -15.7230 -47.9950 256° West 228 262 9,400 -900 Descending FlightAware
09:32PM -15.8626 -47.9127 150° Southeast  Level Estimated
09:33PM -15.8626 -47.9127 128° Southeast  Level Estimated
09:34PM -15.8626 -47.9127 128° Southeast  Level Estimated
09:34PM -15.8320 -48.1610 128° Southeast 179 206 5,400  Level FlightAware
09:35PM -15.8490 -48.1140 111° Southeast 170 196 5,300 -120 Descending FlightAware
09:35PM -15.8580 -48.0920 113° Southeast 168 193 5,300 -180 Level FlightAware
09:36PM -15.8610 -48.0840 111° Southeast 167 192 5,200 -180 Descending FlightAware
09:36PM -15.8680 -48.0630 109° East 146 168 5,200 -180 Level FlightAware
09:36PM -15.8700 -48.0540 103° East 143 165 5,100 -180 Descending FlightAware
09:37PM -15.8700 -48.0330 90° East 142 163 5,100 -240 Level FlightAware
09:37PM -15.8690 -48.0140 87° East 144 166 4,900 -600 Descending FlightAware
09:38PM -15.8680 -47.9970 87° East 144 166 4,600 -840 Descending FlightAware
09:38PM -15.8670 -47.9780 87° East 143 165 4,200 -780 Descending FlightAware
09:39PM -15.8660 -47.9580 87° East 143 165 3,900 -660 Descending FlightAware
09:39PM -15.8640 -47.9400 83° East 148 170 3,600 -660 Descending FlightAware
09:40PM -15.8630 -47.9150 88° East 152 175 3,200 -600 Descending FlightAware
09:42PM -15.8640 -47.9120 109° East 21 24 -1,680 Descending FlightAware
09:42PM -15.8650 -47.9150 251° West 22 25  Level FlightAware
09:43PM -15.8650 -47.9170 270° West 27 31  Level FlightAware
09:43PM -15.8650 -47.9200 270° West 27 31  Level FlightAware
09:44PM -15.8680 -47.9190 162° South 29 33  Level FlightAware
09:44PM -15.8690 -47.9190 180° South 24 28  Level FlightAware
09:45PM -15.8690 -47.9200 270° West 12 14  Level FlightAware
09:47PM -15.8626 -47.9127 48° Northeast  Level Estimated
09:48PM -15.8626 -47.9127 128° Southeast  Level Estimated
09:49PM -15.8626 -47.9127 128° Southeast  Level Estimated
09:50PM -15.8626 -47.9127 128° Southeast  Level Estimated
09:51PM -15.8626 -47.9127 128° Southeast  Level Estimated